Time;durP1;ratioP1;P1;durP2;ratioP2;P2;SDS_P1;SDS_P2;PMS_P1;PMS_P2;Temp;Humidity;BMP_temperature;BMP_pressure;BME280_temperature;BME280_humidity;BME280_pressure;Samples;Min_cycle;Max_cycle;Signal;HPM_P1;HPM_P2
2021/09/14 06:05:49;;;;;;;25.38;16.15;;;;;;;17.99;67.08;97087.78;4936233;28;20557;-62
2021/09/14 06:08:16;;;;;;;32.78;17.23;;;;;;;17.45;65.01;96996.34;4942427;28;20141;-64
2021/09/14 06:10:43;;;;;;;25.67;15.90;;;;;;;16.58;64.45;96834.47;5013204;28;20079;-65
2021/09/14 06:13:10;;;;;;;25.95;16.08;;;;;;;18.28;63.12;97037.78;5013723;28;20214;-59
2021/09/14 06:15:37;;;;;;;25.27;16.23;;;;;;;17.46;62.66;96905.50;5004025;28;20501;-62
2021/09/14 06:18:03;;;;;;;27.15;16.63;;;;;;;18.59;61.69;97040.16;5016792;28;20571;-62
2021/09/14 06:20:30;;;;;;;29.90;16.17;;;;;;;19.16;60.44;97085.81;5020020;28;20048;-67
2021/09/14 06:22:57;;;;;;;35.33;18.23;;;;;;;19.48;59.33;97088.94;5017214;28;20048;-62
2021/09/14 06:25:23;;;;;;;27.45;16.38;;;;;;;19.70;58.73;97085.72;5015000;28;20059;-61
2021/09/14 06:27:50;;;;;;;33.08;17.08;;;;;;;19.42;58.02;97034.44;5014542;28;20052;-60
2021/09/14 06:30:17;;;;;;;30.25;16.75;;;;;;;19.15;56.50;96991.56;5020208;28;20049;-62
2021/09/14 06:32:44;;;;;;;26.15;15.98;;;;;;;20.21;55.90;97091.63;5009819;28;20060;-62
2021/09/14 06:35:11;;;;;;;25.90;15.15;;;;;;;20.08;55.49;97042.81;5015662;28;20048;-63
2021/09/14 06:37:38;;;;;;;22.60;15.52;;;;;;;20.44;55.77;97077.47;5010826;28;20056;-65
2021/09/14 06:40:05;;;;;;;22.60;14.80;;;;;;;20.72;55.35;97092.97;5016545;28;20051;-69
2021/09/14 06:42:32;;;;;;;26.33;14.70;;;;;;;20.88;55.65;97093.78;5016642;28;20058;-66
2021/09/14 06:44:59;;;;;;;24.80;14.98;;;;;;;20.89;55.92;97101.00;5017174;28;20052;-63
2021/09/14 06:47:26;;;;;;;21.75;14.13;;;;;;;21.06;56.45;97101.84;5016262;28;20406;-61
2021/09/14 06:49:53;;;;;;;26.50;14.07;;;;;;;19.82;54.29;96936.13;5017027;28;20056;-63
2021/09/14 06:52:35;;;;;;;20.83;13.07;;;;;;;21.32;54.09;97092.38;5020727;28;20154;-61
2021/09/14 06:55:02;;;;;;;21.88;13.77;;;;;;;21.14;53.62;97027.22;5018211;28;20048;-61
2021/09/14 06:57:29;;;;;;;23.40;14.20;;;;;;;21.70;53.26;97099.06;5016763;28;20045;-63
2021/09/14 06:59:55;;;;;;;24.77;14.52;;;;;;;21.91;52.36;97101.34;5015797;28;20082;-63
2021/09/14 07:02:22;;;;;;;25.65;14.07;;;;;;;19.66;51.62;96731.69;5017612;28;20317;-63
2021/09/14 07:04:49;;;;;;;29.90;15.40;;;;;;;22.14;52.47;97101.16;5015565;28;20064;-65
2021/09/14 07:07:15;;;;;;;23.65;14.52;;;;;;;21.60;51.29;96978.91;5017241;28;20052;-63
2021/09/14 07:09:42;;;;;;;22.67;14.13;;;;;;;22.66;50.57;97106.53;5015902;28;20060;-63
2021/09/14 07:12:10;;;;;;;25.77;15.13;;;;;;;22.40;50.12;97048.38;5019147;28;20223;-61
2021/09/14 07:14:38;;;;;;;28.85;15.82;;;;;;;21.77;51.81;96966.34;5014358;28;20057;-64
2021/09/14 07:17:05;;;;;;;23.80;13.93;;;;;;;21.25;51.49;96822.03;5014123;28;20558;-64
2021/09/14 07:19:32;;;;;;;23.13;14.65;;;;;;;23.22;51.89;97099.13;5011996;28;20045;-60
2021/09/14 07:21:59;;;;;;;22.38;14.38;;;;;;;22.79;51.96;97030.28;5015588;28;20499;-62
2021/09/14 07:24:25;;;;;;;16.40;14.65;;;;;;;23.11;51.43;97058.34;5014879;28;20051;-61
2021/09/14 07:26:52;;;;;;;19.67;13.90;;;;;;;23.62;50.86;97105.13;5047655;28;20056;-64
2021/09/14 07:29:19;;;;;;;25.48;16.13;;;;;;;23.88;50.62;97109.50;5015938;28;20044;-61
2021/09/14 07:31:48;;;;;;;20.88;13.60;;;;;;;23.75;49.27;97049.31;5049182;28;20056;-65
2021/09/14 07:34:15;;;;;;;19.55;14.02;;;;;;;22.42;48.21;96882.97;5019918;28;20631;-61
2021/09/14 07:36:42;;;;;;;24.33;13.68;;;;;;;24.47;46.98;97109.44;5016181;28;20757;-62
2021/09/14 07:39:08;;;;;;;19.63;13.45;;;;;;;24.51;48.19;97101.59;5015755;28;20083;-64
2021/09/14 07:41:35;;;;;;;22.73;14.57;;;;;;;24.63;47.45;97078.06;5054598;28;20128;-61
2021/09/14 07:44:02;;;;;;;18.60;12.13;;;;;;;25.02;43.29;97097.22;5050757;28;20045;-63
2021/09/14 07:46:29;;;;;;;20.02;10.90;;;;;;;25.24;42.25;97095.13;5058951;28;20048;-63
2021/09/14 07:48:56;;;;;;;16.00;10.88;;;;;;;25.24;42.01;97069.59;5043761;28;20053;-64
2021/09/14 07:51:24;;;;;;;12.80;11.50;;;;;;;25.54;41.93;97096.41;5060668;28;20050;-63
2021/09/14 07:53:51;;;;;;;12.18;10.77;;;;;;;25.61;41.05;97089.63;5091225;28;20059;-63
2021/09/14 07:56:18;;;;;;;14.90;11.00;;;;;;;25.81;40.88;97098.50;5055669;28;20044;-63
2021/09/14 07:58:44;;;;;;;14.07;11.45;;;;;;;25.60;40.52;97065.34;5063642;28;20056;-62
2021/09/14 08:01:11;;;;;;;17.27;11.05;;;;;;;25.65;40.14;97042.03;5062369;28;20055;-64
2021/09/14 08:03:38;;;;;;;17.55;12.93;;;;;;;24.42;39.56;96917.44;5062866;28;20048;-65
2021/09/14 08:06:05;;;;;;;14.38;10.82;;;;;;;24.61;40.86;96972.91;5060710;28;20592;-65
2021/09/14 08:08:32;;;;;;;15.95;11.98;;;;;;;25.40;40.47;97039.44;5062444;28;20044;-63
2021/09/14 08:10:59;;;;;;;12.93;10.93;;;;;;;25.45;40.54;97030.31;5059715;28;20131;-63
2021/09/14 08:13:35;;;;;;;14.43;10.82;;;;;;;25.11;40.32;97012.22;5054656;28;20485;-62
2021/09/14 08:16:02;;;;;;;20.92;14.38;;;;;;;25.56;40.83;97030.66;5060675;28;20126;-61
2021/09/14 08:18:29;;;;;;;15.35;13.05;;;;;;;25.89;39.49;97037.34;5062304;28;20377;-64
2021/09/14 08:20:56;;;;;;;12.65;11.45;;;;;;;26.00;40.19;97032.00;5061480;28;20521;-61
2021/09/14 08:23:24;;;;;;;12.13;9.85;;;;;;;26.09;39.22;97068.94;5062330;28;20044;-63
2021/09/14 08:25:50;;;;;;;14.25;10.57;;;;;;;25.99;38.81;97047.41;5062232;28;20098;-63
2021/09/14 08:28:18;;;;;;;13.45;10.75;;;;;;;26.32;40.43;97079.69;5052353;28;20428;-64
2021/09/14 08:30:44;;;;;;;14.18;11.20;;;;;;;26.36;39.41;97074.63;5041321;28;20088;-63
2021/09/14 08:33:11;;;;;;;13.82;10.45;;;;;;;26.48;39.03;97082.19;5042524;28;20060;-65
2021/09/14 08:35:40;;;;;;;15.95;11.40;;;;;;;26.39;39.44;97053.78;5054740;28;20049;-61
2021/09/14 08:38:06;;;;;;;13.48;10.63;;;;;;;26.30;39.94;97040.34;5052985;28;20055;-67
2021/09/14 08:40:33;;;;;;;12.23;10.32;;;;;;;26.18;39.97;97043.34;5062881;28;20462;-67
2021/09/14 08:43:00;;;;;;;12.10;9.38;;;;;;;26.37;38.90;97067.66;5062222;28;20070;-67
2021/09/14 08:45:27;;;;;;;12.15;8.77;;;;;;;25.93;39.87;97035.91;5060172;28;20048;-62
2021/09/14 08:47:54;;;;;;;11.27;9.52;;;;;;;25.51;39.82;96960.34;5050545;28;20151;-64
2021/09/14 08:50:23;;;;;;;12.50;9.90;;;;;;;26.35;39.57;97064.53;5092877;28;20063;-65
2021/09/14 08:52:50;;;;;;;12.90;11.70;;;;;;;26.15;38.79;97038.63;5062526;28;20520;-64
2021/09/14 08:55:18;;;;;;;12.48;11.27;;;;;;;26.49;39.83;97063.88;5060354;28;20055;-66
2021/09/14 08:57:51;;;;;;;17.20;12.88;;;;;;;26.32;39.92;97054.13;5062630;28;20053;-65
2021/09/14 09:00:36;;;;;;;9.45;8.50;;;;;;;26.00;39.45;97061.22;5062244;28;20156;-69
2021/09/14 09:03:04;;;;;;;9.98;8.85;;;;;;;26.09;39.75;97066.88;5061454;28;20465;-61
2021/09/14 09:05:40;;;;;;;13.00;9.40;;;;;;;26.40;39.21;97061.03;5062460;28;20518;-61
2021/09/14 09:08:22;;;;;;;13.65;10.80;;;;;;;26.35;38.80;97030.44;5062487;28;20053;-65
2021/09/14 09:11:06;;;;;;;11.65;9.85;;;;;;;26.77;38.65;97050.44;5060410;28;20598;-64
2021/09/14 09:13:42;;;;;;;14.50;11.48;;;;;;;27.07;38.55;97057.94;5061695;28;20050;-62
2021/09/14 09:16:26;;;;;;;9.88;8.90;;;;;;;27.26;37.30;97054.56;5060183;28;20048;-61
2021/09/14 09:18:58;;;;;;;10.85;8.73;;;;;;;26.67;38.40;97024.06;5062650;28;20265;-62
2021/09/14 09:21:39;;;;;;;10.93;9.40;;;;;;;26.89;38.43;97058.00;5060291;28;20060;-62
2021/09/14 09:24:12;;;;;;;12.35;9.63;;;;;;;26.87;37.55;97058.47;5094709;28;20131;-61
2021/09/14 09:26:40;;;;;;;;;;;;;;;27.14;37.62;97058.38;5062674;28;20055;-61
2021/09/14 09:29:10;;;;;;;13.68;11.60;;;;;;;27.24;38.70;97056.28;5061920;28;20471;-61
2021/09/14 09:31:43;;;;;;;13.15;10.48;;;;;;;27.26;37.95;97054.56;5062486;28;20396;-63
2021/09/14 09:34:11;;;;;;;14.27;11.23;;;;;;;26.96;37.21;96967.44;5061045;28;20105;-65
2021/09/14 09:36:41;;;;;;;14.27;10.70;;;;;;;27.56;36.57;97021.38;5061797;28;20056;-63
2021/09/14 09:39:15;;;;;;;13.48;11.93;;;;;;;26.61;36.87;96847.72;5061038;28;20073;-64
2021/09/14 09:41:56;;;;;;;15.15;11.65;;;;;;;28.18;36.21;97045.78;5062619;28;20049;-62
2021/09/14 09:44:22;;;;;;;15.38;9.65;;;;;;;28.12;36.08;97047.75;5065381;28;20052;-63
2021/09/14 09:46:57;;;;;;;14.90;10.93;;;;;;;28.12;36.43;97047.75;5063934;28;20063;-63
2021/09/14 09:49:25;;;;;;;12.27;10.93;;;;;;;28.42;35.36;97050.69;5059825;28;20171;-65
2021/09/14 09:51:53;;;;;;;12.73;10.57;;;;;;;27.57;36.29;96938.34;5061068;28;20053;-67
2021/09/14 09:54:21;;;;;;;10.93;9.77;;;;;;;28.23;35.13;97044.34;5064954;28;20055;-62
2021/09/14 09:56:52;;;;;;;11.18;9.88;;;;;;;27.25;35.64;97015.19;5063335;28;20056;-64
2021/09/14 09:59:19;;;;;;;10.93;9.82;;;;;;;27.75;34.95;97043.56;5065120;28;20526;-64
2021/09/14 10:02:21;;;;;;;10.82;9.73;;;;;;;27.48;35.73;97037.22;5065583;28;20053;-64
2021/09/14 10:04:54;;;;;;;13.38;10.15;;;;;;;27.94;35.70;97041.41;5053733;28;20059;-64
2021/09/14 10:07:26;;;;;;;11.65;10.45;;;;;;;27.38;34.97;96945.44;5065374;28;20048;-66
2021/09/14 10:09:57;;;;;;;15.25;11.20;;;;;;;26.40;35.99;96805.34;5065831;28;20048;-62
2021/09/14 10:12:23;;;;;;;11.05;9.95;;;;;;;28.01;35.55;97029.66;5065727;28;20048;-63
2021/09/14 10:15:04;;;;;;;11.52;10.32;;;;;;;28.29;34.77;97030.19;5065466;28;20063;-66
2021/09/14 10:17:44;;;;;;;13.30;10.25;;;;;;;28.18;34.48;96971.72;5064282;28;20052;-68
2021/09/14 10:20:11;;;;;;;16.17;10.27;;;;;;;28.39;34.29;96991.81;5054555;28;20049;-61
2021/09/14 10:22:38;;;;;;;10.77;9.85;;;;;;;27.87;34.33;96942.06;5063556;28;20132;-68
2021/09/14 10:25:08;;;;;;;11.07;9.98;;;;;;;27.95;34.74;97009.59;5064561;28;20569;-67
2021/09/14 10:27:43;;;;;;;10.55;9.65;;;;;;;27.53;35.56;96966.22;5065407;28;20060;-64
2021/09/14 10:30:13;;;;;;;10.93;9.93;;;;;;;28.51;33.62;96999.31;5064982;28;20095;-65
2021/09/14 10:32:43;;;;;;;15.10;9.93;;;;;;;28.62;33.18;96965.28;5064722;28;20048;-67
2021/09/14 10:35:12;;;;;;;11.82;10.55;;;;;;;28.90;34.13;97015.84;5055325;28;20512;-66
2021/09/14 10:37:39;;;;;;;12.43;9.88;;;;;;;28.29;33.98;96894.22;5058309;28;20059;-65
2021/09/14 10:40:13;;;;;;;11.45;10.30;;;;;;;28.09;34.31;96900.59;5061680;28;20636;-64
2021/09/14 10:42:45;;;;;;;12.38;10.52;;;;;;;28.67;33.47;96933.25;5062588;28;20052;-65
2021/09/14 10:45:17;;;;;;;13.68;10.75;;;;;;;28.95;33.11;97011.50;5063644;28;20056;-64
2021/09/14 10:47:47;;;;;;;10.82;9.75;;;;;;;29.30;33.13;97013.16;5064198;28;20062;-60
2021/09/14 10:50:26;;;;;;;12.32;11.20;;;;;;;29.44;32.53;96974.44;5063932;28;20055;-66
2021/09/14 10:53:01;;;;;;;13.65;11.20;;;;;;;29.16;32.46;96930.44;5065254;28;20432;-68
2021/09/14 10:55:30;;;;;;;13.93;10.38;;;;;;;29.36;31.26;97007.53;5064586;28;20139;-63
2021/09/14 10:58:00;;;;;;;12.80;10.00;;;;;;;29.30;33.32;96998.09;5064843;28;20833;-65
2021/09/14 11:00:28;;;;;;;12.80;10.90;;;;;;;29.49;31.31;96970.88;5062521;28;20068;-62
2021/09/14 11:02:56;;;;;;;16.55;10.65;;;;;;;29.04;31.81;96945.75;5064716;28;20052;-61
2021/09/14 11:05:27;;;;;;;10.07;9.07;;;;;;;28.75;31.52;97008.56;5062346;28;20064;-64
2021/09/14 11:08:03;;;;;;;17.70;10.35;;;;;;;28.63;31.97;97007.56;5062335;28;20063;-63
2021/09/14 11:10:36;;;;;;;9.70;8.85;;;;;;;28.49;31.33;96996.94;5096086;28;20052;-63
2021/09/14 11:13:03;;;;;;;11.52;10.38;;;;;;;27.53;32.36;96862.97;5063809;28;20044;-62
2021/09/14 11:15:30;;;;;;;10.52;9.63;;;;;;;28.92;31.59;97003.94;5064699;28;20060;-60
2021/09/14 11:17:57;;;;;;;11.32;10.23;;;;;;;29.06;31.21;96994.56;5063037;28;20535;-61
2021/09/14 11:20:26;;;;;;;11.32;10.23;;;;;;;28.36;31.99;96930.09;5063587;28;20052;-64
2021/09/14 11:22:54;;;;;;;11.82;10.02;;;;;;;28.51;32.23;96987.91;5063854;28;20052;-60
2021/09/14 11:25:26;;;;;;;12.20;10.25;;;;;;;28.72;32.26;96958.22;5063644;28;20052;-62
2021/09/14 11:27:57;;;;;;;;;;;;;;;28.81;31.56;96983.78;5062538;28;20052;-62
2021/09/14 11:30:25;;;;;;;11.95;10.80;;;;;;;29.12;31.18;96981.19;5063746;28;20371;-61
2021/09/14 11:32:53;;;;;;;11.07;10.07;;;;;;;28.37;32.30;96926.75;5062735;28;20052;-61
2021/09/14 11:35:20;;;;;;;11.27;10.05;;;;;;;28.97;31.31;96980.41;5062432;28;20040;-60
2021/09/14 11:38:01;;;;;;;11.15;10.15;;;;;;;28.55;31.81;96971.41;5062646;28;20818;-60
2021/09/14 11:40:29;;;;;;;11.35;9.68;;;;;;;29.02;31.10;96982.56;5063281;28;20047;-59
2021/09/14 11:42:57;;;;;;;12.90;10.90;;;;;;;28.82;31.09;96920.53;5062703;28;20071;-61
2021/09/14 11:45:26;;;;;;;10.85;9.77;;;;;;;28.80;30.89;96979.38;5062821;28;20361;-61
2021/09/14 11:47:54;;;;;;;11.90;10.70;;;;;;;28.80;31.32;96976.50;5063413;28;20055;-60
2021/09/14 11:50:36;;;;;;;12.02;10.93;;;;;;;29.06;30.85;96966.03;5063947;28;20056;-64
2021/09/14 11:53:07;;;;;;;10.95;9.82;;;;;;;29.06;31.40;96931.78;5062171;28;20059;-64
2021/09/14 11:55:41;;;;;;;10.50;9.43;;;;;;;28.67;32.25;96962.56;5062722;28;20044;-67
2021/09/14 11:58:07;;;;;;;;;;;;;;;28.66;31.05;96968.75;5063579;28;20056;-65
2021/09/14 12:00:55;;;;;;;11.18;10.27;;;;;;;28.72;31.01;96963.94;5063523;28;20359;-62
2021/09/14 12:03:22;;;;;;;9.80;8.93;;;;;;;29.02;30.95;96925.53;5062146;28;20045;-63
2021/09/14 12:05:56;;;;;;;13.07;10.52;;;;;;;28.38;30.25;96814.31;5061079;28;20167;-63
2021/09/14 12:08:52;;;;;;;11.52;10.40;;;;;;;29.41;30.72;96950.53;5060382;28;20044;-63
2021/09/14 12:11:26;;;;;;;10.18;9.23;;;;;;;28.82;31.28;96962.53;5057244;28;20538;-63
2021/09/14 12:14:02;;;;;;;10.60;9.57;;;;;;;28.74;32.19;96964.22;5062334;28;20063;-60
2021/09/14 12:16:32;;;;;;;11.60;10.50;;;;;;;28.90;31.75;96958.00;5062213;28;20048;-62
2021/09/14 12:18:59;;;;;;;12.30;9.90;;;;;;;28.93;31.32;96957.00;5059905;28;20101;-65
2021/09/14 12:21:26;;;;;;;10.13;9.15;;;;;;;28.89;31.83;96962.94;5063194;28;20063;-62
2021/09/14 12:23:55;;;;;;;10.68;9.55;;;;;;;28.72;31.32;96918.31;5062456;28;20061;-63
2021/09/14 12:26:39;;;;;;;9.75;8.95;;;;;;;28.89;30.75;96945.00;5062086;28;20066;-62
2021/09/14 12:29:08;;;;;;;10.25;9.35;;;;;;;28.50;32.25;96883.72;5063100;28;20076;-63
2021/09/14 12:31:36;;;;;;;9.93;9.02;;;;;;;28.71;31.10;96945.22;5062431;28;20048;-60
2021/09/14 12:34:03;;;;;;;10.88;9.52;;;;;;;28.78;31.74;96944.84;5062877;28;20044;-64
2021/09/14 12:36:30;;;;;;;10.20;9.30;;;;;;;28.48;31.96;96940.44;5058909;28;20433;-65
2021/09/14 12:38:57;;;;;;;10.75;9.82;;;;;;;27.67;31.28;96806.06;5061808;28;20049;-63
2021/09/14 12:41:24;;;;;;;10.70;9.68;;;;;;;27.40;31.27;96757.94;5061767;28;20052;-67
2021/09/14 12:43:51;;;;;;;10.63;9.63;;;;;;;28.46;31.20;96877.38;5061802;28;20059;-67
2021/09/14 12:46:19;;;;;;;13.15;10.02;;;;;;;29.00;32.29;96931.72;5060997;28;20056;-66
2021/09/14 12:48:46;;;;;;;9.90;8.93;;;;;;;28.89;32.08;96939.31;5062989;28;20048;-66
2021/09/14 12:51:13;;;;;;;9.07;8.27;;;;;;;28.60;31.72;96933.63;5063123;28;20056;-65
2021/09/14 12:53:40;;;;;;;10.18;8.98;;;;;;;28.39;31.61;96931.97;5062343;28;20395;-65
2021/09/14 12:56:08;;;;;;;8.07;7.43;;;;;;;28.09;30.84;96939.66;5061212;28;20053;-66
2021/09/14 12:58:48;;;;;;;10.25;8.93;;;;;;;27.46;31.53;96892.56;5059965;28;20048;-66
2021/09/14 13:01:15;;;;;;;10.10;9.20;;;;;;;28.02;31.30;96903.84;5062957;28;20053;-65
2021/09/14 13:03:42;;;;;;;10.50;9.18;;;;;;;28.51;32.03;96930.91;5060934;28;20048;-67
2021/09/14 13:06:09;;;;;;;8.07;7.28;;;;;;;28.52;31.08;96935.31;5060750;28;20057;-66
2021/09/14 13:08:36;;;;;;;12.13;10.18;;;;;;;28.31;31.61;96927.91;5060951;28;20062;-67
2021/09/14 13:11:03;;;;;;;12.43;8.88;;;;;;;28.30;31.70;96884.38;5062943;28;20454;-66
2021/09/14 13:16:15;;;;;;;10.60;9.48;;;;;;;28.94;31.20;96930.84;5062584;28;20450;-66
2021/09/14 13:18:47;;;;;;;11.75;10.10;;;;;;;28.86;30.72;96934.59;5063359;28;20048;-66
2021/09/14 13:21:15;;;;;;;9.95;9.00;;;;;;;28.81;30.16;96932.44;5065241;28;20147;-65
2021/09/14 13:23:43;;;;;;;9.85;8.95;;;;;;;28.65;30.58;96938.66;5065262;28;20101;-67
2021/09/14 13:26:11;;;;;;;11.25;9.52;;;;;;;28.68;31.32;96926.25;5066617;28;20074;-66
2021/09/14 13:28:38;;;;;;;10.75;9.77;;;;;;;28.75;30.72;96928.72;5064669;28;20048;-66
2021/09/14 13:31:04;;;;;;;10.30;9.30;;;;;;;28.53;31.04;96916.94;5065799;28;20056;-63
2021/09/14 13:33:31;;;;;;;9.95;9.15;;;;;;;28.97;30.60;96911.94;5065803;28;20056;-66
2021/09/14 13:35:58;;;;;;;9.90;9.10;;;;;;;29.24;29.69;96920.19;5065879;28;20063;-64
2021/09/14 13:38:27;;;;;;;10.02;9.23;;;;;;;29.60;29.21;96919.63;5064250;28;20063;-67
2021/09/14 13:40:58;;;;;;;11.02;9.48;;;;;;;29.91;28.96;96916.91;5065743;28;20518;-64
2021/09/14 13:46:14;;;;;;;10.93;9.90;;;;;;;31.08;28.12;96922.47;5066153;28;20131;-65
2021/09/14 13:48:49;;;;;;;10.77;9.77;;;;;;;30.49;27.95;96858.56;5066025;28;20063;-65
2021/09/14 13:51:21;;;;;;;13.93;10.88;;;;;;;31.21;27.16;96884.81;5065951;28;20052;-67
2021/09/14 13:53:51;;;;;;;13.43;10.35;;;;;;;32.05;25.66;96838.88;5065491;28;20129;-66
2021/09/14 13:56:25;;;;;;;10.90;9.95;;;;;;;33.35;24.92;96910.41;5065973;28;20044;-65
2021/09/14 13:58:53;;;;;;;10.63;9.52;;;;;;;34.38;23.96;96908.94;5065429;28;20508;-65
2021/09/14 14:01:20;;;;;;;11.10;10.18;;;;;;;34.71;23.77;96908.75;5065885;28;20102;-65
2021/09/14 14:03:48;;;;;;;11.25;10.32;;;;;;;33.81;25.19;96911.84;5065844;28;20060;-66
2021/09/14 14:06:15;;;;;;;12.52;11.23;;;;;;;31.75;28.53;96912.22;5064444;28;20057;-66
2021/09/14 14:08:42;;;;;;;11.23;10.25;;;;;;;31.03;28.64;96874.56;5065757;28;20067;-66
2021/09/14 14:11:09;;;;;;;12.60;10.88;;;;;;;30.68;29.07;96817.59;5065155;28;20098;-66
2021/09/14 14:13:37;;;;;;;12.85;11.43;;;;;;;31.32;28.75;96907.81;5065201;28;20176;-66
2021/09/14 14:16:04;;;;;;;12.15;10.98;;;;;;;31.37;28.57;96912.81;5065473;28;20063;-65
2021/09/14 14:18:31;;;;;;;12.30;11.13;;;;;;;31.65;28.03;96902.28;5065315;28;20536;-65
2021/09/14 14:20:58;;;;;;;14.77;10.80;;;;;;;31.48;28.42;96881.38;5064052;28;20048;-66
2021/09/14 14:23:25;;;;;;;12.38;10.98;;;;;;;30.40;30.02;96908.13;5065430;28;20511;-65
2021/09/14 14:25:52;;;;;;;14.50;11.13;;;;;;;29.62;31.31;96911.34;5065103;28;20448;-66
2021/09/14 14:28:19;;;;;;;11.60;10.60;;;;;;;28.47;32.98;96918.88;5063792;28;20067;-66
2021/09/14 14:30:46;;;;;;;12.93;11.30;;;;;;;28.44;33.63;96919.88;5064073;28;20045;-66
2021/09/14 14:33:13;;;;;;;13.25;10.63;;;;;;;27.71;34.11;96869.28;5065147;28;20052;-66
2021/09/14 14:35:39;;;;;;;12.07;10.95;;;;;;;27.69;34.83;96917.41;5065706;28;20128;-66
2021/09/14 14:38:06;;;;;;;13.55;8.32;;;;;;;27.54;34.72;96916.53;5063348;28;20048;-66
2021/09/14 14:40:33;;;;;;;10.80;8.90;;;;;;;26.64;35.07;96786.31;5065407;28;20151;-67
2021/09/14 14:43:00;;;;;;;11.98;8.65;;;;;;;27.31;34.65;96914.50;5065317;28;20052;-65
2021/09/14 14:45:27;;;;;;;15.15;8.65;;;;;;;27.18;34.81;96918.81;5065194;28;20517;-66
2021/09/14 14:47:54;;;;;;;12.40;9.50;;;;;;;27.07;36.02;96922.22;5063197;28;20440;-65
2021/09/14 14:50:23;;;;;;;11.38;8.13;;;;;;;26.52;35.06;96852.66;5063353;28;20044;-67
2021/09/14 14:52:50;;;;;;;12.00;9.93;;;;;;;26.84;35.59;96930.69;5063717;28;20896;-65
2021/09/14 14:55:17;;;;;;;10.18;9.18;;;;;;;26.79;36.09;96923.63;5064818;28;20056;-65
2021/09/14 14:57:44;;;;;;;11.25;8.60;;;;;;;26.87;35.82;96935.41;5064530;28;20078;-65
2021/09/14 15:00:13;;;;;;;9.27;8.38;;;;;;;26.78;35.93;96916.34;5064571;28;20070;-67
2021/09/14 15:02:40;;;;;;;10.55;7.78;;;;;;;26.93;36.24;96931.44;5064776;28;20048;-66
2021/09/14 15:05:08;;;;;;;10.40;7.88;;;;;;;26.69;36.53;96902.19;5064269;28;20057;-66
2021/09/14 15:07:35;;;;;;;10.77;7.95;;;;;;;26.99;36.48;96928.72;5063287;28;20068;-66
2021/09/14 15:10:04;;;;;;;9.18;7.43;;;;;;;26.91;36.71;96931.13;5064598;28;20462;-65
2021/09/14 15:12:31;;;;;;;10.90;7.35;;;;;;;26.75;37.13;96939.28;5062585;28;20048;-66
2021/09/14 15:14:58;;;;;;;9.38;6.97;;;;;;;26.65;37.34;96930.00;5063078;28;20079;-65
2021/09/14 15:17:25;;;;;;;12.75;8.20;;;;;;;26.54;37.51;96916.25;5064474;28;20604;-65
2021/09/14 15:19:56;;;;;;;13.18;8.65;;;;;;;26.73;37.14;96948.25;5063215;28;20052;-66
2021/09/14 15:22:23;;;;;;;13.32;8.55;;;;;;;26.49;37.64;96927.50;5063201;28;20059;-66
2021/09/14 15:24:51;;;;;;;13.02;8.90;;;;;;;26.60;37.18;96944.81;5063091;28;20440;-65
2021/09/14 15:27:18;;;;;;;10.00;7.75;;;;;;;25.87;37.30;96846.81;5064292;28;20063;-67
2021/09/14 15:29:45;;;;;;;10.73;7.38;;;;;;;25.43;37.79;96811.56;5064349;28;20049;-64
2021/09/14 15:32:11;;;;;;;10.57;7.20;;;;;;;26.13;37.46;96951.06;5064343;28;20059;-66
2021/09/14 15:34:38;;;;;;;10.50;8.13;;;;;;;26.21;37.84;96960.03;5063077;28;20048;-66
2021/09/14 15:37:05;;;;;;;11.18;7.47;;;;;;;26.12;37.79;96962.91;5063841;28;20372;-66
2021/09/14 15:39:33;;;;;;;10.82;8.02;;;;;;;26.05;37.38;96940.53;5062249;28;20582;-64
2021/09/14 15:42:00;;;;;;;13.27;7.60;;;;;;;25.87;37.80;96960.38;5061780;28;20048;-67
2021/09/14 15:44:27;;;;;;;11.93;7.50;;;;;;;25.81;37.98;96962.28;5063722;28;20573;-66
2021/09/14 15:46:55;;;;;;;12.57;7.95;;;;;;;25.06;38.52;96861.78;5064136;28;20058;-67
2021/09/14 15:49:23;;;;;;;10.75;7.50;;;;;;;25.71;38.26;96969.19;5062119;28;20499;-66
2021/09/14 15:51:51;;;;;;;12.55;7.90;;;;;;;24.88;38.57;96859.69;5062409;28;20051;-66
2021/09/14 15:54:18;;;;;;;12.25;7.78;;;;;;;25.05;38.66;96914.84;5063766;28;20491;-66
2021/09/14 15:56:45;;;;;;;10.68;8.85;;;;;;;25.45;39.21;96967.91;5063213;28;20485;-66
2021/09/14 15:59:12;;;;;;;13.05;8.23;;;;;;;25.40;38.68;96974.22;5063928;28;20483;-66
2021/09/14 16:01:39;;;;;;;8.55;6.95;;;;;;;25.20;39.26;96968.91;5063590;28;20052;-66
2021/09/14 16:04:12;;;;;;;14.18;9.38;;;;;;;25.02;39.73;96958.31;5061873;28;20514;-66
2021/09/14 16:06:39;;;;;;;12.07;9.00;;;;;;;24.95;39.91;96952.94;5063054;28;20109;-67
2021/09/14 16:09:08;;;;;;;16.50;10.00;;;;;;;24.70;40.27;96936.19;5063798;28;20052;-66
2021/09/14 16:11:37;;;;;;;15.48;9.20;;;;;;;24.92;40.48;96970.09;5063351;28;20148;-65
2021/09/14 16:14:04;;;;;;;21.88;16.17;;;;;;;24.86;41.22;96984.09;5063350;28;20156;-67
2021/09/14 16:16:30;;;;;;;12.32;8.73;;;;;;;24.79;41.29;96973.03;5062063;28;20052;-66
2021/09/14 16:18:58;;;;;;;11.93;8.32;;;;;;;24.74;41.46;96987.81;5061669;28;20064;-66
2021/09/14 16:21:25;;;;;;;10.32;8.55;;;;;;;24.07;42.33;96910.34;5063658;28;20060;-66
2021/09/14 16:23:53;;;;;;;12.20;9.70;;;;;;;24.24;43.43;96951.31;5063439;28;20103;-67
2021/09/14 16:26:20;;;;;;;17.00;10.52;;;;;;;24.49;44.02;96987.16;5063755;28;20058;-66
2021/09/14 16:28:47;;;;;;;26.17;10.32;;;;;;;24.43;45.16;97004.00;5063586;28;20052;-66
2021/09/14 16:31:13;;;;;;;23.35;11.02;;;;;;;24.29;46.56;96996.03;5063516;28;20496;-65
2021/09/14 16:33:40;;;;;;;24.75;11.48;;;;;;;24.00;47.40;96989.84;5061632;28;20056;-67
2021/09/14 16:36:07;;;;;;;18.70;12.95;;;;;;;24.00;48.24;97001.16;5063432;28;20056;-64
2021/09/14 16:38:34;;;;;;;21.95;13.50;;;;;;;23.79;48.61;97004.72;5063452;28;20424;-66
2021/09/14 16:41:02;;;;;;;22.25;13.38;;;;;;;23.40;49.46;96974.19;5062020;28;20060;-65
2021/09/14 16:43:32;;;;;;;22.15;13.80;;;;;;;23.49;50.21;97008.22;5063423;28;20067;-66
2021/09/14 16:46:01;;;;;;;19.75;13.27;;;;;;;23.28;50.71;97009.75;5061477;28;20059;-67
2021/09/14 16:48:28;;;;;;;37.13;19.85;;;;;;;22.84;51.22;96973.22;5062895;28;20056;-65
2021/09/14 16:50:56;;;;;;;35.78;22.35;;;;;;;23.02;51.21;97021.47;5062962;28;20048;-65
2021/09/14 16:53:25;;;;;;;30.95;23.95;;;;;;;22.89;51.85;97015.81;5065481;28;20716;-65
2021/09/14 16:55:52;;;;;;;24.58;19.33;;;;;;;22.73;52.03;97020.81;5067133;28;20052;-65
2021/09/14 16:58:19;;;;;;;20.73;14.90;;;;;;;22.60;52.00;97034.09;5065809;28;20056;-67
2021/09/14 17:00:46;;;;;;;17.38;11.43;;;;;;;22.33;53.13;97029.63;5067173;28;20052;-66
2021/09/14 17:03:13;;;;;;;18.85;12.27;;;;;;;22.19;53.15;97015.91;5066701;28;20678;-67
2021/09/14 17:05:41;;;;;;;21.40;11.70;;;;;;;22.12;53.78;97033.06;5066608;28;20103;-65
2021/09/14 17:08:08;;;;;;;20.52;11.63;;;;;;;21.70;54.06;97006.03;5065195;28;20063;-64
2021/09/14 17:10:36;;;;;;;17.80;11.35;;;;;;;21.85;54.54;97046.72;5066766;28;20056;-66
2021/09/14 17:13:03;;;;;;;18.73;10.10;;;;;;;21.79;54.60;97051.31;5066666;28;20059;-67
2021/09/14 17:15:30;;;;;;;12.50;9.25;;;;;;;21.62;55.16;97054.56;5067028;28;20048;-64
2021/09/14 17:17:57;;;;;;;12.55;9.10;;;;;;;21.56;55.34;97045.84;5064901;28;20049;-66
2021/09/14 17:20:24;;;;;;;15.05;11.05;;;;;;;21.31;56.12;97040.06;5066609;28;20056;-65
2021/09/14 17:22:51;;;;;;;15.52;9.98;;;;;;;21.09;56.28;97016.47;5066612;28;20053;-66
2021/09/14 17:25:19;;;;;;;13.13;8.40;;;;;;;21.20;56.75;97067.72;5066872;28;20489;-65
2021/09/14 17:27:46;;;;;;;13.20;8.25;;;;;;;21.08;56.89;97071.22;5065470;28;20162;-66
2021/09/14 17:30:14;;;;;;;9.55;7.32;;;;;;;19.04;57.29;96782.38;5066918;28;20059;-65
2021/09/14 17:32:41;;;;;;;12.57;7.75;;;;;;;20.66;57.42;97058.09;5064942;28;20052;-65
2021/09/14 17:35:10;;;;;;;12.77;8.57;;;;;;;20.13;58.13;96993.69;5066070;28;20059;-65
2021/09/14 17:37:38;;;;;;;13.48;8.50;;;;;;;20.65;58.53;97079.03;5066418;28;20067;-64
2021/09/14 17:40:06;;;;;;;16.33;9.48;;;;;;;20.13;58.62;97010.56;5066001;28;20138;-67